<?xml version="1.0" encoding="utf-8"?>
<gpx xmlns:xsi="http://www.w3.org/2001/XMLSchema-instance" xmlns:xsd="http://www.w3.org/2001/XMLSchema" version="1.1" creator="Shapelink.com" xmlns="http://www.topografix.com/GPX/1/1" xmlns:gpxtpx="http://www.garmin.com/xmlschemas/TrackPointExtension/v1">
  <metadata>
    <name>Cycling 12.21 km, 2020-06-16</name>
    <desc></desc>
    <author><name>Marian Moron</name></author> 
    <time>2020-06-16T18:14:26Z</time>
  </metadata>
  <trk>
    <name>Cycling 12.21 km, 2020-06-16</name>
    <trkseg>
      <trkpt lat="51.228674200099" lon="4.44943187039">
        <ele>0</ele>
        <time>2020-06-16T18:14:26Z</time>
      </trkpt>
      <trkpt lat="51.228866313247" lon="4.448782356959">
        <ele>0</ele>
        <time>2020-06-16T18:14:42Z</time>
      </trkpt>
      <trkpt lat="51.22885181256" lon="4.448869193443">
        <ele>0</ele>
        <time>2020-06-16T18:14:45Z</time>
      </trkpt>
      <trkpt lat="51.228810405974" lon="4.448881933931">
        <ele>0</ele>
        <time>2020-06-16T18:14:47Z</time>
      </trkpt>
      <trkpt lat="51.229038812749" lon="4.448503323508">
        <ele>0</ele>
        <time>2020-06-16T18:15:07Z</time>
      </trkpt>
      <trkpt lat="51.229021462216" lon="4.448417828128">
        <ele>0</ele>
        <time>2020-06-16T18:15:09Z</time>
      </trkpt>
      <trkpt lat="51.228670512063" lon="4.447740654427">
        <ele>0</ele>
        <time>2020-06-16T18:15:31Z</time>
      </trkpt>
      <trkpt lat="51.228334733149" lon="4.447163812069">
        <ele>0</ele>
        <time>2020-06-16T18:15:45Z</time>
      </trkpt>
      <trkpt lat="51.227902059471" lon="4.447694805434">
        <ele>0</ele>
        <time>2020-06-16T18:16:03Z</time>
      </trkpt>
      <trkpt lat="51.227488328887" lon="4.448304588659">
        <ele>0</ele>
        <time>2020-06-16T18:16:20Z</time>
      </trkpt>
      <trkpt lat="51.22710586279" lon="4.448906660536">
        <ele>0</ele>
        <time>2020-06-16T18:16:35Z</time>
      </trkpt>
      <trkpt lat="51.226836049429" lon="4.449393565107">
        <ele>0</ele>
        <time>2020-06-16T18:16:51Z</time>
      </trkpt>
      <trkpt lat="51.2267865124" lon="4.449343944259">
        <ele>0</ele>
        <time>2020-06-16T18:16:55Z</time>
      </trkpt>
      <trkpt lat="51.226872762151" lon="4.449207989841">
        <ele>0</ele>
        <time>2020-06-16T18:17:01Z</time>
      </trkpt>
      <trkpt lat="51.226890615598" lon="4.449029371552">
        <ele>0</ele>
        <time>2020-06-16T18:17:16Z</time>
      </trkpt>
      <trkpt lat="51.226464060707" lon="4.449617026561">
        <ele>0</ele>
        <time>2020-06-16T18:17:33Z</time>
      </trkpt>
      <trkpt lat="51.226081510791" lon="4.450236281333">
        <ele>0</ele>
        <time>2020-06-16T18:17:47Z</time>
      </trkpt>
      <trkpt lat="51.22566669056" lon="4.450812536958">
        <ele>1.4</ele>
        <time>2020-06-16T18:18:00Z</time>
      </trkpt>
      <trkpt lat="51.225307358507" lon="4.451464816416">
        <ele>2.4</ele>
        <time>2020-06-16T18:18:14Z</time>
      </trkpt>
      <trkpt lat="51.225027319228" lon="4.452266126056">
        <ele>2</ele>
        <time>2020-06-16T18:18:28Z</time>
      </trkpt>
      <trkpt lat="51.224900752538" lon="4.453136754009">
        <ele>0.6</ele>
        <time>2020-06-16T18:18:43Z</time>
      </trkpt>
      <trkpt lat="51.22482850056" lon="4.45399246218">
        <ele>0</ele>
        <time>2020-06-16T18:19:00Z</time>
      </trkpt>
      <trkpt lat="51.22481257495" lon="4.454715652512">
        <ele>0</ele>
        <time>2020-06-16T18:19:19Z</time>
      </trkpt>
      <trkpt lat="51.224824141972" lon="4.454756220908">
        <ele>0</ele>
        <time>2020-06-16T18:19:21Z</time>
      </trkpt>
      <trkpt lat="51.22470696301" lon="4.455639924625">
        <ele>0</ele>
        <time>2020-06-16T18:19:39Z</time>
      </trkpt>
      <trkpt lat="51.224531278386" lon="4.456466044689">
        <ele>0</ele>
        <time>2020-06-16T18:19:55Z</time>
      </trkpt>
      <trkpt lat="51.224179825319" lon="4.457141961105">
        <ele>0.4</ele>
        <time>2020-06-16T18:20:12Z</time>
      </trkpt>
      <trkpt lat="51.223704236313" lon="4.457605731632">
        <ele>0</ele>
        <time>2020-06-16T18:20:28Z</time>
      </trkpt>
      <trkpt lat="51.223232502981" lon="4.458107891261">
        <ele>4.4</ele>
        <time>2020-06-16T18:20:52Z</time>
      </trkpt>
      <trkpt lat="51.222868560883" lon="4.458713818812">
        <ele>16</ele>
        <time>2020-06-16T18:21:10Z</time>
      </trkpt>
      <trkpt lat="51.222593550744" lon="4.458771234827">
        <ele>13.2</ele>
        <time>2020-06-16T18:21:18Z</time>
      </trkpt>
      <trkpt lat="51.222495566333" lon="4.458636705332">
        <ele>10.4</ele>
        <time>2020-06-16T18:21:35Z</time>
      </trkpt>
      <trkpt lat="51.222524483888" lon="4.45876511604">
        <ele>10.4</ele>
        <time>2020-06-16T18:23:36Z</time>
      </trkpt>
      <trkpt lat="51.222619534634" lon="4.458789591188">
        <ele>8.6</ele>
        <time>2020-06-16T18:23:45Z</time>
      </trkpt>
      <trkpt lat="51.223153461664" lon="4.458440904148">
        <ele>17.8</ele>
        <time>2020-06-16T18:24:15Z</time>
      </trkpt>
      <trkpt lat="51.223590242473" lon="4.457856434261">
        <ele>15.6</ele>
        <time>2020-06-16T18:24:35Z</time>
      </trkpt>
      <trkpt lat="51.223975055502" lon="4.457234916376">
        <ele>3.4</ele>
        <time>2020-06-16T18:24:52Z</time>
      </trkpt>
      <trkpt lat="51.224296836643" lon="4.456522622514">
        <ele>0</ele>
        <time>2020-06-16T18:25:11Z</time>
      </trkpt>
      <trkpt lat="51.2245485451" lon="4.455694658432">
        <ele>0</ele>
        <time>2020-06-16T18:25:34Z</time>
      </trkpt>
      <trkpt lat="51.224682906957" lon="4.454844817591">
        <ele>0</ele>
        <time>2020-06-16T18:25:58Z</time>
      </trkpt>
      <trkpt lat="51.224716853652" lon="4.454661170162">
        <ele>0</ele>
        <time>2020-06-16T18:26:05Z</time>
      </trkpt>
      <trkpt lat="51.224724145905" lon="4.454637449385">
        <ele>0</ele>
        <time>2020-06-16T18:26:09Z</time>
      </trkpt>
      <trkpt lat="51.224718362394" lon="4.454617249006">
        <ele>0</ele>
        <time>2020-06-16T18:26:11Z</time>
      </trkpt>
      <trkpt lat="51.224731102882" lon="4.454577099705">
        <ele>0</ele>
        <time>2020-06-16T18:26:13Z</time>
      </trkpt>
      <trkpt lat="51.224756919134" lon="4.454541560449">
        <ele>0</ele>
        <time>2020-06-16T18:26:16Z</time>
      </trkpt>
      <trkpt lat="51.224725487009" lon="4.454442905486">
        <ele>0</ele>
        <time>2020-06-16T18:26:20Z</time>
      </trkpt>
      <trkpt lat="51.224255932971" lon="4.454453131404">
        <ele>9</ele>
        <time>2020-06-16T18:26:56Z</time>
      </trkpt>
      <trkpt lat="51.223939600065" lon="4.454449443368">
        <ele>18.8</ele>
        <time>2020-06-16T18:32:46Z</time>
      </trkpt>
      <trkpt lat="51.223374324729" lon="4.454392781724">
        <ele>18.4</ele>
        <time>2020-06-16T18:33:10Z</time>
      </trkpt>
      <trkpt lat="51.22326359983" lon="4.454451455024">
        <ele>17.8</ele>
        <time>2020-06-16T18:33:14Z</time>
      </trkpt>
      <trkpt lat="51.222725314212" lon="4.454336455356">
        <ele>11.4</ele>
        <time>2020-06-16T18:33:31Z</time>
      </trkpt>
      <trkpt lat="51.22216305636" lon="4.454282643558">
        <ele>4</ele>
        <time>2020-06-16T18:33:51Z</time>
      </trkpt>
      <trkpt lat="51.221611275883" lon="4.454237381298">
        <ele>0</ele>
        <time>2020-06-16T18:34:11Z</time>
      </trkpt>
      <trkpt lat="51.221045665271" lon="4.454230256683">
        <ele>2.2</ele>
        <time>2020-06-16T18:34:30Z</time>
      </trkpt>
      <trkpt lat="51.220555324121" lon="4.454507278478">
        <ele>3.4</ele>
        <time>2020-06-16T18:34:51Z</time>
      </trkpt>
      <trkpt lat="51.220177887164" lon="4.455144889611">
        <ele>4.8</ele>
        <time>2020-06-16T18:35:09Z</time>
      </trkpt>
      <trkpt lat="51.219998179228" lon="4.455271623939">
        <ele>6.6</ele>
        <time>2020-06-16T18:35:15Z</time>
      </trkpt>
      <trkpt lat="51.219664663427" lon="4.454548349788">
        <ele>6.8</ele>
        <time>2020-06-16T18:35:31Z</time>
      </trkpt>
      <trkpt lat="51.219466096216" lon="4.453721642991">
        <ele>6.2</ele>
        <time>2020-06-16T18:35:47Z</time>
      </trkpt>
      <trkpt lat="51.219188739145" lon="4.452941204282">
        <ele>5.4</ele>
        <time>2020-06-16T18:36:04Z</time>
      </trkpt>
      <trkpt lat="51.219058484419" lon="4.452170572396">
        <ele>5.2</ele>
        <time>2020-06-16T18:36:26Z</time>
      </trkpt>
      <trkpt lat="51.219040882429" lon="4.452026236078">
        <ele>3.6</ele>
        <time>2020-06-16T18:36:29Z</time>
      </trkpt>
      <trkpt lat="51.218984556061" lon="4.451930095685">
        <ele>2.4</ele>
        <time>2020-06-16T18:36:31Z</time>
      </trkpt>
      <trkpt lat="51.218925631304" lon="4.451824735202">
        <ele>2</ele>
        <time>2020-06-16T18:36:33Z</time>
      </trkpt>
      <trkpt lat="51.218852624955" lon="4.451749884835">
        <ele>1.4</ele>
        <time>2020-06-16T18:36:35Z</time>
      </trkpt>
      <trkpt lat="51.218766207566" lon="4.451705460765">
        <ele>1</ele>
        <time>2020-06-16T18:36:37Z</time>
      </trkpt>
      <trkpt lat="51.218300006288" lon="4.451988936623">
        <ele>0</ele>
        <time>2020-06-16T18:36:56Z</time>
      </trkpt>
      <trkpt lat="51.21822440155" lon="4.452892002529">
        <ele>0</ele>
        <time>2020-06-16T18:37:14Z</time>
      </trkpt>
      <trkpt lat="51.218199758764" lon="4.453787273268">
        <ele>0</ele>
        <time>2020-06-16T18:37:31Z</time>
      </trkpt>
      <trkpt lat="51.218137481247" lon="4.454650860425">
        <ele>0</ele>
        <time>2020-06-16T18:37:48Z</time>
      </trkpt>
      <trkpt lat="51.21808107106" lon="4.45483651951">
        <ele>0</ele>
        <time>2020-06-16T18:37:53Z</time>
      </trkpt>
      <trkpt lat="51.217517053009" lon="4.454817073502">
        <ele>1.8</ele>
        <time>2020-06-16T18:38:15Z</time>
      </trkpt>
      <trkpt lat="51.216979270305" lon="4.454746665542">
        <ele>2</ele>
        <time>2020-06-16T18:38:39Z</time>
      </trkpt>
      <trkpt lat="51.216873071632" lon="4.454750521216">
        <ele>2</ele>
        <time>2020-06-16T18:38:46Z</time>
      </trkpt>
      <trkpt lat="51.216866701388" lon="4.454790251422">
        <ele>1.8</ele>
        <time>2020-06-16T18:38:48Z</time>
      </trkpt>
      <trkpt lat="51.216935349149" lon="4.455644283213">
        <ele>0</ele>
        <time>2020-06-16T18:39:07Z</time>
      </trkpt>
      <trkpt lat="51.217021179805" lon="4.456496219529">
        <ele>0</ele>
        <time>2020-06-16T18:39:22Z</time>
      </trkpt>
      <trkpt lat="51.217155960757" lon="4.45738461711">
        <ele>0</ele>
        <time>2020-06-16T18:39:40Z</time>
      </trkpt>
      <trkpt lat="51.217265260733" lon="4.458251137932">
        <ele>2.2</ele>
        <time>2020-06-16T18:39:57Z</time>
      </trkpt>
      <trkpt lat="51.217381098591" lon="4.459119083677">
        <ele>0</ele>
        <time>2020-06-16T18:40:20Z</time>
      </trkpt>
      <trkpt lat="51.217487883997" lon="4.460000356643">
        <ele>0</ele>
        <time>2020-06-16T18:40:44Z</time>
      </trkpt>
      <trkpt lat="51.217638925835" lon="4.460832595494">
        <ele>0</ele>
        <time>2020-06-16T18:41:06Z</time>
      </trkpt>
      <trkpt lat="51.217796421736" lon="4.460967460265">
        <ele>0</ele>
        <time>2020-06-16T18:41:14Z</time>
      </trkpt>
      <trkpt lat="51.217845791127" lon="4.461853175638">
        <ele>0</ele>
        <time>2020-06-16T18:41:34Z</time>
      </trkpt>
      <trkpt lat="51.217792566062" lon="4.462759007571">
        <ele>0</ele>
        <time>2020-06-16T18:41:50Z</time>
      </trkpt>
      <trkpt lat="51.217429043059" lon="4.463142814772">
        <ele>0</ele>
        <time>2020-06-16T18:42:05Z</time>
      </trkpt>
      <trkpt lat="51.216878855143" lon="4.46312454223">
        <ele>1.2</ele>
        <time>2020-06-16T18:42:19Z</time>
      </trkpt>
      <trkpt lat="51.216323470449" lon="4.463098977435">
        <ele>1.8</ele>
        <time>2020-06-16T18:42:35Z</time>
      </trkpt>
      <trkpt lat="51.215916529204" lon="4.463140048745">
        <ele>0</ele>
        <time>2020-06-16T18:42:47Z</time>
      </trkpt>
      <trkpt lat="51.215913260263" lon="4.463202745357">
        <ele>0</ele>
        <time>2020-06-16T18:42:49Z</time>
      </trkpt>
      <trkpt lat="51.215979980187" lon="4.46406247684">
        <ele>0</ele>
        <time>2020-06-16T18:43:06Z</time>
      </trkpt>
      <trkpt lat="51.215883085423" lon="4.464232377953">
        <ele>0</ele>
        <time>2020-06-16T18:43:10Z</time>
      </trkpt>
      <trkpt lat="51.216051310156" lon="4.465086325925">
        <ele>0.4</ele>
        <time>2020-06-16T18:43:26Z</time>
      </trkpt>
      <trkpt lat="51.216101014823" lon="4.46573131313">
        <ele>0</ele>
        <time>2020-06-16T18:43:39Z</time>
      </trkpt>
      <trkpt lat="51.215580247376" lon="4.466016130092">
        <ele>0.4</ele>
        <time>2020-06-16T18:43:54Z</time>
      </trkpt>
      <trkpt lat="51.215399952707" lon="4.466425166812">
        <ele>0</ele>
        <time>2020-06-16T18:44:08Z</time>
      </trkpt>
      <trkpt lat="51.215450495564" lon="4.46667511507">
        <ele>0</ele>
        <time>2020-06-16T18:44:50Z</time>
      </trkpt>
      <trkpt lat="51.215040285378" lon="4.467179118717">
        <ele>0</ele>
        <time>2020-06-16T18:45:11Z</time>
      </trkpt>
      <trkpt lat="51.21459000971" lon="4.466765136676">
        <ele>0</ele>
        <time>2020-06-16T18:45:30Z</time>
      </trkpt>
      <trkpt lat="51.214095142334" lon="4.466368672806">
        <ele>0</ele>
        <time>2020-06-16T18:45:47Z</time>
      </trkpt>
      <trkpt lat="51.213616619663" lon="4.466001880862">
        <ele>0.4</ele>
        <time>2020-06-16T18:46:02Z</time>
      </trkpt>
      <trkpt lat="51.213307746648" lon="4.466616777046">
        <ele>0</ele>
        <time>2020-06-16T18:46:18Z</time>
      </trkpt>
      <trkpt lat="51.213319648946" lon="4.467276684033">
        <ele>0</ele>
        <time>2020-06-16T18:46:33Z</time>
      </trkpt>
      <trkpt lat="51.212864595595" lon="4.467700305259">
        <ele>0</ele>
        <time>2020-06-16T18:46:53Z</time>
      </trkpt>
      <trkpt lat="51.212835510402" lon="4.467701478725">
        <ele>0</ele>
        <time>2020-06-16T18:46:54Z</time>
      </trkpt>
      <trkpt lat="51.212809442693" lon="4.467650013859">
        <ele>0</ele>
        <time>2020-06-16T18:46:56Z</time>
      </trkpt>
      <trkpt lat="51.212409206968" lon="4.467075183157">
        <ele>0</ele>
        <time>2020-06-16T18:47:17Z</time>
      </trkpt>
      <trkpt lat="51.212200581477" lon="4.466449390503">
        <ele>3.2</ele>
        <time>2020-06-16T18:47:46Z</time>
      </trkpt>
      <trkpt lat="51.212047025069" lon="4.465608015381">
        <ele>3.6</ele>
        <time>2020-06-16T18:48:03Z</time>
      </trkpt>
      <trkpt lat="51.211570933149" lon="4.46588721647">
        <ele>0</ele>
        <time>2020-06-16T18:48:19Z</time>
      </trkpt>
      <trkpt lat="51.211474038385" lon="4.466021159232">
        <ele>1.4</ele>
        <time>2020-06-16T18:48:29Z</time>
      </trkpt>
      <trkpt lat="51.211487281787" lon="4.466097099246">
        <ele>1</ele>
        <time>2020-06-16T18:48:32Z</time>
      </trkpt>
      <trkpt lat="51.211563389439" lon="4.466934031961">
        <ele>3.4</ele>
        <time>2020-06-16T18:48:49Z</time>
      </trkpt>
      <trkpt lat="51.211523491595" lon="4.467813460909">
        <ele>2.6</ele>
        <time>2020-06-16T18:49:07Z</time>
      </trkpt>
      <trkpt lat="51.211425926279" lon="4.469314994475">
        <ele>0.8</ele>
        <time>2020-06-16T18:49:39Z</time>
      </trkpt>
      <trkpt lat="51.211551151865" lon="4.470171624655">
        <ele>0</ele>
        <time>2020-06-16T18:49:59Z</time>
      </trkpt>
      <trkpt lat="51.211771847292" lon="4.470987351163">
        <ele>0</ele>
        <time>2020-06-16T18:50:16Z</time>
      </trkpt>
      <trkpt lat="51.212109973138" lon="4.471673661135">
        <ele>0</ele>
        <time>2020-06-16T18:50:32Z</time>
      </trkpt>
      <trkpt lat="51.212456397065" lon="4.472344967506">
        <ele>1.4</ele>
        <time>2020-06-16T18:50:48Z</time>
      </trkpt>
      <trkpt lat="51.212753451601" lon="4.473054914436">
        <ele>0</ele>
        <time>2020-06-16T18:51:02Z</time>
      </trkpt>
      <trkpt lat="51.213040028762" lon="4.473806519409">
        <ele>0</ele>
        <time>2020-06-16T18:51:19Z</time>
      </trkpt>
      <trkpt lat="51.213291318124" lon="4.474617635872">
        <ele>0</ele>
        <time>2020-06-16T18:51:35Z</time>
      </trkpt>
      <trkpt lat="51.213426015257" lon="4.475472422034">
        <ele>0</ele>
        <time>2020-06-16T18:51:51Z</time>
      </trkpt>
      <trkpt lat="51.213587115375" lon="4.47632100559">
        <ele>0</ele>
        <time>2020-06-16T18:52:08Z</time>
      </trkpt>
      <trkpt lat="51.213763889646" lon="4.477162296893">
        <ele>0</ele>
        <time>2020-06-16T18:52:24Z</time>
      </trkpt>
      <trkpt lat="51.214119701301" lon="4.477858748964">
        <ele>3</ele>
        <time>2020-06-16T18:52:41Z</time>
      </trkpt>
      <trkpt lat="51.214552123522" lon="4.478402650455">
        <ele>1.8</ele>
        <time>2020-06-16T18:52:57Z</time>
      </trkpt>
      <trkpt lat="51.215026287605" lon="4.47881629722">
        <ele>0</ele>
        <time>2020-06-16T18:53:13Z</time>
      </trkpt>
      <trkpt lat="51.215068197105" lon="4.478832809563">
        <ele>0</ele>
        <time>2020-06-16T18:53:14Z</time>
      </trkpt>
      <trkpt lat="51.215413782842" lon="4.478858709634">
        <ele>0</ele>
        <time>2020-06-16T18:53:21Z</time>
      </trkpt>
      <trkpt lat="51.21549525491" lon="4.478791570615">
        <ele>0</ele>
        <time>2020-06-16T18:53:23Z</time>
      </trkpt>
      <trkpt lat="51.215501625154" lon="4.478917885848">
        <ele>0</ele>
        <time>2020-06-16T18:53:27Z</time>
      </trkpt>
      <trkpt lat="51.215479916033" lon="4.478896679641">
        <ele>0</ele>
        <time>2020-06-16T18:53:28Z</time>
      </trkpt>
      <trkpt lat="51.215484526078" lon="4.478823505654">
        <ele>0</ele>
        <time>2020-06-16T18:53:30Z</time>
      </trkpt>
      <trkpt lat="51.21596128855" lon="4.479238912618">
        <ele>0</ele>
        <time>2020-06-16T18:53:49Z</time>
      </trkpt>
      <trkpt lat="51.21610126628" lon="4.479405125695">
        <ele>0</ele>
        <time>2020-06-16T18:53:56Z</time>
      </trkpt>
      <trkpt lat="51.216148707834" lon="4.480280950426">
        <ele>0.8</ele>
        <time>2020-06-16T18:54:15Z</time>
      </trkpt>
      <trkpt lat="51.216582722616" lon="4.480594182029">
        <ele>0</ele>
        <time>2020-06-16T18:54:33Z</time>
      </trkpt>
      <trkpt lat="51.21645665884" lon="4.481248305505">
        <ele>0</ele>
        <time>2020-06-16T18:54:49Z</time>
      </trkpt>
      <trkpt lat="51.21651449395" lon="4.481437149712">
        <ele>0</ele>
        <time>2020-06-16T18:54:55Z</time>
      </trkpt>
      <trkpt lat="51.216964434342" lon="4.481464809982">
        <ele>5.2</ele>
        <time>2020-06-16T18:55:20Z</time>
      </trkpt>
      <trkpt lat="51.217060742373" lon="4.480624105412">
        <ele>4.6</ele>
        <time>2020-06-16T18:55:43Z</time>
      </trkpt>
      <trkpt lat="51.217130898876" lon="4.479738473858">
        <ele>3</ele>
        <time>2020-06-16T18:56:01Z</time>
      </trkpt>
      <trkpt lat="51.217194182221" lon="4.478851417381">
        <ele>3</ele>
        <time>2020-06-16T18:56:20Z</time>
      </trkpt>
      <trkpt lat="51.217199127542" lon="4.478427209422">
        <ele>2.4</ele>
        <time>2020-06-16T18:56:27Z</time>
      </trkpt>
      <trkpt lat="51.217205078691" lon="4.477731008808">
        <ele>5</ele>
        <time>2020-06-16T18:56:37Z</time>
      </trkpt>
      <trkpt lat="51.217266266561" lon="4.476835151336">
        <ele>5.6</ele>
        <time>2020-06-16T18:57:00Z</time>
      </trkpt>
      <trkpt lat="51.217336171607" lon="4.475973575835">
        <ele>0.2</ele>
        <time>2020-06-16T18:57:21Z</time>
      </trkpt>
      <trkpt lat="51.217368358103" lon="4.4751047919">
        <ele>3</ele>
        <time>2020-06-16T18:57:37Z</time>
      </trkpt>
      <trkpt lat="51.217428037231" lon="4.474208431514">
        <ele>3.6</ele>
        <time>2020-06-16T18:57:55Z</time>
      </trkpt>
      <trkpt lat="51.217425522661" lon="4.473336127181">
        <ele>4</ele>
        <time>2020-06-16T18:58:09Z</time>
      </trkpt>
      <trkpt lat="51.217406998662" lon="4.472543869993">
        <ele>11</ele>
        <time>2020-06-16T18:58:20Z</time>
      </trkpt>
      <trkpt lat="51.217448991981" lon="4.471701908138">
        <ele>7.4</ele>
        <time>2020-06-16T18:58:32Z</time>
      </trkpt>
      <trkpt lat="51.217445387764" lon="4.471483224367">
        <ele>5.4</ele>
        <time>2020-06-16T18:58:36Z</time>
      </trkpt>
      <trkpt lat="51.217453602026" lon="4.471327321027">
        <ele>3.4</ele>
        <time>2020-06-16T18:58:40Z</time>
      </trkpt>
      <trkpt lat="51.21745578132" lon="4.471251045737">
        <ele>2.8</ele>
        <time>2020-06-16T18:58:42Z</time>
      </trkpt>
      <trkpt lat="51.217523926167" lon="4.470370946237">
        <ele>1.8</ele>
        <time>2020-06-16T18:58:59Z</time>
      </trkpt>
      <trkpt lat="51.21754630584" lon="4.469491265832">
        <ele>7</ele>
        <time>2020-06-16T18:59:15Z</time>
      </trkpt>
      <trkpt lat="51.217505737444" lon="4.468921212813">
        <ele>1.2</ele>
        <time>2020-06-16T18:59:25Z</time>
      </trkpt>
      <trkpt lat="51.217459385537" lon="4.468937138423">
        <ele>0</ele>
        <time>2020-06-16T18:59:27Z</time>
      </trkpt>
      <trkpt lat="51.216993603354" lon="4.469451116531">
        <ele>0</ele>
        <time>2020-06-16T18:59:46Z</time>
      </trkpt>
      <trkpt lat="51.216448696035" lon="4.4692458438">
        <ele>0</ele>
        <time>2020-06-16T19:00:03Z</time>
      </trkpt>
      <trkpt lat="51.215927928588" lon="4.468955913879">
        <ele>1.8</ele>
        <time>2020-06-16T19:00:20Z</time>
      </trkpt>
      <trkpt lat="51.215742353322" lon="4.468502620727">
        <ele>3</ele>
        <time>2020-06-16T19:00:37Z</time>
      </trkpt>
      <trkpt lat="51.216125406152" lon="4.467908511655">
        <ele>9.8</ele>
        <time>2020-06-16T19:01:00Z</time>
      </trkpt>
      <trkpt lat="51.216520612737" lon="4.46776392388">
        <ele>5</ele>
        <time>2020-06-16T19:01:15Z</time>
      </trkpt>
      <trkpt lat="51.216536789804" lon="4.467711034091">
        <ele>0</ele>
        <time>2020-06-16T19:02:21Z</time>
      </trkpt>
      <trkpt lat="51.216638294613" lon="4.467690246979">
        <ele>0</ele>
        <time>2020-06-16T19:02:31Z</time>
      </trkpt>
      <trkpt lat="51.217150261065" lon="4.467378775575">
        <ele>0</ele>
        <time>2020-06-16T19:02:48Z</time>
      </trkpt>
      <trkpt lat="51.217413368906" lon="4.467037716064">
        <ele>0</ele>
        <time>2020-06-16T19:02:59Z</time>
      </trkpt>
      <trkpt lat="51.217467264523" lon="4.467050205095">
        <ele>4.6</ele>
        <time>2020-06-16T19:04:06Z</time>
      </trkpt>
      <trkpt lat="51.217477658079" lon="4.467048277258">
        <ele>4.6</ele>
        <time>2020-06-16T19:04:07Z</time>
      </trkpt>
      <trkpt lat="51.218013848222" lon="4.467081553401">
        <ele>0</ele>
        <time>2020-06-16T19:04:32Z</time>
      </trkpt>
      <trkpt lat="51.218567388898" lon="4.467093707156">
        <ele>0.6</ele>
        <time>2020-06-16T19:04:52Z</time>
      </trkpt>
      <trkpt lat="51.219110452199" lon="4.467061604479">
        <ele>0</ele>
        <time>2020-06-16T19:05:12Z</time>
      </trkpt>
      <trkpt lat="51.219662987047" lon="4.467027490146">
        <ele>0</ele>
        <time>2020-06-16T19:05:33Z</time>
      </trkpt>
      <trkpt lat="51.21988904689" lon="4.466985161551">
        <ele>0.2</ele>
        <time>2020-06-16T19:05:42Z</time>
      </trkpt>
      <trkpt lat="51.219908409079" lon="4.466906539329">
        <ele>0.4</ele>
        <time>2020-06-16T19:05:44Z</time>
      </trkpt>
      <trkpt lat="51.219949648027" lon="4.466043455086">
        <ele>0.2</ele>
        <time>2020-06-16T19:06:02Z</time>
      </trkpt>
      <trkpt lat="51.219998598323" lon="4.46515799117">
        <ele>2.6</ele>
        <time>2020-06-16T19:06:20Z</time>
      </trkpt>
      <trkpt lat="51.220051152836" lon="4.464269677408">
        <ele>5</ele>
        <time>2020-06-16T19:06:39Z</time>
      </trkpt>
      <trkpt lat="51.22011200543" lon="4.46338773389">
        <ele>8.6</ele>
        <time>2020-06-16T19:06:57Z</time>
      </trkpt>
      <trkpt lat="51.220030784819" lon="4.462543760379">
        <ele>9.8</ele>
        <time>2020-06-16T19:07:15Z</time>
      </trkpt>
      <trkpt lat="51.220066491713" lon="4.461654524608">
        <ele>18.6</ele>
        <time>2020-06-16T19:07:31Z</time>
      </trkpt>
      <trkpt lat="51.220287354778" lon="4.460845922715">
        <ele>7</ele>
        <time>2020-06-16T19:07:51Z</time>
      </trkpt>
      <trkpt lat="51.220359020023" lon="4.459999350815">
        <ele>11.6</ele>
        <time>2020-06-16T19:08:09Z</time>
      </trkpt>
      <trkpt lat="51.220342088585" lon="4.459679413692">
        <ele>11.6</ele>
        <time>2020-06-16T19:08:27Z</time>
      </trkpt>
      <trkpt lat="51.220266735304" lon="4.459663990996">
        <ele>3.4</ele>
        <time>2020-06-16T19:09:58Z</time>
      </trkpt>
      <trkpt lat="51.220276877403" lon="4.459627362093">
        <ele>3.2</ele>
        <time>2020-06-16T19:10:00Z</time>
      </trkpt>
      <trkpt lat="51.220287438597" lon="4.458723122721">
        <ele>0</ele>
        <time>2020-06-16T19:10:20Z</time>
      </trkpt>
      <trkpt lat="51.220370754683" lon="4.457835228054">
        <ele>1.8</ele>
        <time>2020-06-16T19:10:36Z</time>
      </trkpt>
      <trkpt lat="51.220466895076" lon="4.456977592046">
        <ele>9.6</ele>
        <time>2020-06-16T19:10:52Z</time>
      </trkpt>
      <trkpt lat="51.220375616185" lon="4.456112747604">
        <ele>15</ele>
        <time>2020-06-16T19:11:16Z</time>
      </trkpt>
      <trkpt lat="51.220002537816" lon="4.45543498717">
        <ele>13.6</ele>
        <time>2020-06-16T19:11:36Z</time>
      </trkpt>
      <trkpt lat="51.219775723602" lon="4.455146901267">
        <ele>4.8</ele>
        <time>2020-06-16T19:11:50Z</time>
      </trkpt>
      <trkpt lat="51.219694670629" lon="4.454986974615">
        <ele>6.6</ele>
        <time>2020-06-16T19:17:56Z</time>
      </trkpt>
      <trkpt lat="51.219655527156" lon="4.454919835596">
        <ele>3.8</ele>
        <time>2020-06-16T19:18:01Z</time>
      </trkpt>
      <trkpt lat="51.219580676789" lon="4.454669468243">
        <ele>1.2</ele>
        <time>2020-06-16T19:18:10Z</time>
      </trkpt>
      <trkpt lat="51.219472885555" lon="4.454164123492">
        <ele>0</ele>
        <time>2020-06-16T19:18:31Z</time>
      </trkpt>
      <trkpt lat="51.219436508109" lon="4.453805881086">
        <ele>1.8</ele>
        <time>2020-06-16T19:19:15Z</time>
      </trkpt>
      <trkpt lat="51.21945570266" lon="4.453717954955">
        <ele>3.2</ele>
        <time>2020-06-16T19:19:18Z</time>
      </trkpt>
      <trkpt lat="51.219221344736" lon="4.452913376374">
        <ele>1</ele>
        <time>2020-06-16T19:19:33Z</time>
      </trkpt>
      <trkpt lat="51.219014647082" lon="4.452314489619">
        <ele>1.8</ele>
        <time>2020-06-16T19:19:51Z</time>
      </trkpt>
      <trkpt lat="51.219084719766" lon="4.452152383673">
        <ele>1.4</ele>
        <time>2020-06-16T19:19:54Z</time>
      </trkpt>
      <trkpt lat="51.219610348715" lon="4.451996815609">
        <ele>3</ele>
        <time>2020-06-16T19:20:10Z</time>
      </trkpt>
      <trkpt lat="51.220153747292" lon="4.452008801726">
        <ele>0.2</ele>
        <time>2020-06-16T19:20:26Z</time>
      </trkpt>
      <trkpt lat="51.220634700714" lon="4.451910817315">
        <ele>2</ele>
        <time>2020-06-16T19:20:35Z</time>
      </trkpt>
      <trkpt lat="51.221187906114" lon="4.451750639206">
        <ele>9.4</ele>
        <time>2020-06-16T19:20:51Z</time>
      </trkpt>
      <trkpt lat="51.221737088202" lon="4.451541678439">
        <ele>5.6</ele>
        <time>2020-06-16T19:21:03Z</time>
      </trkpt>
      <trkpt lat="51.221829540559" lon="4.451471689574">
        <ele>4.4</ele>
        <time>2020-06-16T19:21:05Z</time>
      </trkpt>
      <trkpt lat="51.221986785003" lon="4.45132785617">
        <ele>3.4</ele>
        <time>2020-06-16T19:21:09Z</time>
      </trkpt>
      <trkpt lat="51.222198930892" lon="4.451203384955">
        <ele>4.8</ele>
        <time>2020-06-16T19:21:14Z</time>
      </trkpt>
      <trkpt lat="51.222749873179" lon="4.45107137003">
        <ele>1.2</ele>
        <time>2020-06-16T19:21:26Z</time>
      </trkpt>
      <trkpt lat="51.223197466639" lon="4.451172204287">
        <ele>0</ele>
        <time>2020-06-16T19:21:38Z</time>
      </trkpt>
      <trkpt lat="51.223369966141" lon="4.451225764628">
        <ele>0</ele>
        <time>2020-06-16T19:21:42Z</time>
      </trkpt>
      <trkpt lat="51.223537771779" lon="4.45128594667">
        <ele>0</ele>
        <time>2020-06-16T19:21:46Z</time>
      </trkpt>
      <trkpt lat="51.223881262041" lon="4.451371693507">
        <ele>0</ele>
        <time>2020-06-16T19:21:54Z</time>
      </trkpt>
      <trkpt lat="51.223969942543" lon="4.451355097345">
        <ele>0</ele>
        <time>2020-06-16T19:21:56Z</time>
      </trkpt>
      <trkpt lat="51.224094832853" lon="4.451287287774">
        <ele>0</ele>
        <time>2020-06-16T19:21:59Z</time>
      </trkpt>
      <trkpt lat="51.224167671564" lon="4.45121805328">
        <ele>0</ele>
        <time>2020-06-16T19:22:01Z</time>
      </trkpt>
      <trkpt lat="51.224572265877" lon="4.450603240915">
        <ele>0</ele>
        <time>2020-06-16T19:22:15Z</time>
      </trkpt>
      <trkpt lat="51.224966466634" lon="4.449999911753">
        <ele>0</ele>
        <time>2020-06-16T19:22:30Z</time>
      </trkpt>
      <trkpt lat="51.225469212996" lon="4.449704785054">
        <ele>0</ele>
        <time>2020-06-16T19:22:48Z</time>
      </trkpt>
      <trkpt lat="51.225992997927" lon="4.449468247836">
        <ele>1.8</ele>
        <time>2020-06-16T19:23:07Z</time>
      </trkpt>
      <trkpt lat="51.226306313349" lon="4.448739357812">
        <ele>1.8</ele>
        <time>2020-06-16T19:23:22Z</time>
      </trkpt>
      <trkpt lat="51.226617784753" lon="4.448017340946">
        <ele>2.8</ele>
        <time>2020-06-16T19:23:37Z</time>
      </trkpt>
      <trkpt lat="51.227033694631" lon="4.447403534409">
        <ele>2.4</ele>
        <time>2020-06-16T19:23:52Z</time>
      </trkpt>
      <trkpt lat="51.227498470986" lon="4.446712446754">
        <ele>2.6</ele>
        <time>2020-06-16T19:24:10Z</time>
      </trkpt>
      <trkpt lat="51.227925025877" lon="4.44611431437">
        <ele>1.8</ele>
        <time>2020-06-16T19:24:27Z</time>
      </trkpt>
      <trkpt lat="51.22828435793" lon="4.445449797338">
        <ele>2.4</ele>
        <time>2020-06-16T19:24:43Z</time>
      </trkpt>
      <trkpt lat="51.228576383326" lon="4.44470280241">
        <ele>2</ele>
        <time>2020-06-16T19:25:02Z</time>
      </trkpt>
      <trkpt lat="51.228975110309" lon="4.444102406913">
        <ele>2</ele>
        <time>2020-06-16T19:25:17Z</time>
      </trkpt>
      <trkpt lat="51.229473162807" lon="4.443835527217">
        <ele>1.6</ele>
        <time>2020-06-16T19:25:33Z</time>
      </trkpt>
      <trkpt lat="51.229725709454" lon="4.444639267608">
        <ele>1</ele>
        <time>2020-06-16T19:25:52Z</time>
      </trkpt>
      <trkpt lat="51.229759320873" lon="4.444826938349">
        <ele>1.4</ele>
        <time>2020-06-16T19:25:59Z</time>
      </trkpt>
      <trkpt lat="51.229763847099" lon="4.444851832592">
        <ele>1.4</ele>
        <time>2020-06-16T19:26:41Z</time>
      </trkpt>
      <trkpt lat="51.229784298935" lon="4.444920312715">
        <ele>1.2</ele>
        <time>2020-06-16T19:26:44Z</time>
      </trkpt>
      <trkpt lat="51.229870967781" lon="4.445060793359">
        <ele>1.4</ele>
        <time>2020-06-16T19:26:49Z</time>
      </trkpt>
      <trkpt lat="51.230090070647" lon="4.445862941189">
        <ele>1.2</ele>
        <time>2020-06-16T19:27:08Z</time>
      </trkpt>
      <trkpt lat="51.230312945368" lon="4.446647570848">
        <ele>1.2</ele>
        <time>2020-06-16T19:27:27Z</time>
      </trkpt>
      <trkpt lat="51.23053489808" lon="4.447478636233">
        <ele>1.4</ele>
        <time>2020-06-16T19:27:47Z</time>
      </trkpt>
      <trkpt lat="51.230744529399" lon="4.448301068261">
        <ele>1.6</ele>
        <time>2020-06-16T19:28:09Z</time>
      </trkpt>
      <trkpt lat="51.230970086328" lon="4.449083350988">
        <ele>3.6</ele>
        <time>2020-06-16T19:28:27Z</time>
      </trkpt>
      <trkpt lat="51.231141999097" lon="4.449916092753">
        <ele>4.6</ele>
        <time>2020-06-16T19:28:44Z</time>
      </trkpt>
      <trkpt lat="51.231296058419" lon="4.45076794525">
        <ele>7.2</ele>
        <time>2020-06-16T19:29:07Z</time>
      </trkpt>
      <trkpt lat="51.231502085521" lon="4.451585515776">
        <ele>13.8</ele>
        <time>2020-06-16T19:29:27Z</time>
      </trkpt>
      <trkpt lat="51.231644242545" lon="4.45243007602">
        <ele>15.2</ele>
        <time>2020-06-16T19:29:48Z</time>
      </trkpt>
      <trkpt lat="51.231818753703" lon="4.453266422002">
        <ele>18</ele>
        <time>2020-06-16T19:30:08Z</time>
      </trkpt>
      <trkpt lat="51.231950181895" lon="4.454146353864">
        <ele>15.2</ele>
        <time>2020-06-16T19:30:27Z</time>
      </trkpt>
      <trkpt lat="51.231963760573" lon="4.454268561966">
        <ele>14.8</ele>
        <time>2020-06-16T19:30:29Z</time>
      </trkpt>
      <trkpt lat="51.232106001416" lon="4.455142877955">
        <ele>11.8</ele>
        <time>2020-06-16T19:30:47Z</time>
      </trkpt>
      <trkpt lat="51.232245476232" lon="4.456020546704">
        <ele>9.2</ele>
        <time>2020-06-16T19:31:05Z</time>
      </trkpt>
      <trkpt lat="51.232406660169" lon="4.45672747615">
        <ele>20.4</ele>
        <time>2020-06-16T19:31:21Z</time>
      </trkpt>
      <trkpt lat="51.23236801961" lon="4.456764859424">
        <ele>19.2</ele>
        <time>2020-06-16T19:31:23Z</time>
      </trkpt>
      <trkpt lat="51.232322841169" lon="4.456753124764">
        <ele>18.8</ele>
        <time>2020-06-16T19:31:25Z</time>
      </trkpt>
      <trkpt lat="51.23179385946" lon="4.456403348077">
        <ele>8.2</ele>
        <time>2020-06-16T19:31:41Z</time>
      </trkpt>
      <trkpt lat="51.231278875524" lon="4.456080896384">
        <ele>12.2</ele>
        <time>2020-06-16T19:31:58Z</time>
      </trkpt>
      <trkpt lat="51.231265296846" lon="4.456022642179">
        <ele>11.4</ele>
        <time>2020-06-16T19:31:59Z</time>
      </trkpt>
      <trkpt lat="51.231177119258" lon="4.455146733629">
        <ele>3.8</ele>
        <time>2020-06-16T19:32:14Z</time>
      </trkpt>
      <trkpt lat="51.231035046053" lon="4.454278452608">
        <ele>0</ele>
        <time>2020-06-16T19:32:31Z</time>
      </trkpt>
      <trkpt lat="51.230858774696" lon="4.453436826029">
        <ele>0.2</ele>
        <time>2020-06-16T19:32:49Z</time>
      </trkpt>
      <trkpt lat="51.230735057852" lon="4.452587488102">
        <ele>0</ele>
        <time>2020-06-16T19:33:07Z</time>
      </trkpt>
      <trkpt lat="51.230572197535" lon="4.451708897344">
        <ele>0</ele>
        <time>2020-06-16T19:33:22Z</time>
      </trkpt>
      <trkpt lat="51.230423167353" lon="4.45084002959">
        <ele>0</ele>
        <time>2020-06-16T19:33:38Z</time>
      </trkpt>
      <trkpt lat="51.22991128472" lon="4.450817733736">
        <ele>0.2</ele>
        <time>2020-06-16T19:33:54Z</time>
      </trkpt>
      <trkpt lat="51.229694696424" lon="4.450884034565">
        <ele>0.8</ele>
        <time>2020-06-16T19:34:01Z</time>
      </trkpt>
      <trkpt lat="51.229501074534" lon="4.450045760746">
        <ele>0</ele>
        <time>2020-06-16T19:34:17Z</time>
      </trkpt>
      <trkpt lat="51.229368724333" lon="4.449268926254">
        <ele>0</ele>
        <time>2020-06-16T19:34:30Z</time>
      </trkpt>
      <trkpt lat="51.229339974416" lon="4.449063318247">
        <ele>0.6</ele>
        <time>2020-06-16T19:34:33Z</time>
      </trkpt>
      <trkpt lat="51.229000591285" lon="4.44844532076">
        <ele>4.2</ele>
        <time>2020-06-16T19:34:53Z</time>
      </trkpt>
      <trkpt lat="51.228962369821" lon="4.448510448123">
        <ele>3</ele>
        <time>2020-06-16T19:34:55Z</time>
      </trkpt>
      <trkpt lat="51.228586190149" lon="4.449174043146">
        <ele>0</ele>
        <time>2020-06-16T19:35:13Z</time>
      </trkpt>
      <trkpt lat="51.228499018389" lon="4.449246211305">
        <ele>0</ele>
        <time>2020-06-16T19:35:19Z</time>
      </trkpt>
    </trkseg>
  </trk>
</gpx>